Edmonton International Airport
CYEG : rendu visible

Aérodrome :











RETROUVEZ-NOUS SUR...

 
LOGIN :

S'inscrire | Disclaimer

   EN    FR    IT 

 









Légende :    VFR   VFR Marginal   IFR   IFR Intensif   IFR Très Intensif
Visi : 
Plafond : 
>= 8 km
>= 3000ft
5 à 8 km
1000 à 3000 ft
1500m à 5 km
500 à 1000 ft
800 à 1500m
200 à 500 ft
< 800m
< 200 ft
Symboles :   Orages  Brouillard  Fortes neiges  Fortes précipitations  Vent > 20 kt






- Altitude de l'aérodrome : 2373 ft
- Code IATA : YEG


CYEG - Edmonton International

DERNIER METAR :
  • 181700Z 28004KT 20SM SCT150 BKN240 M29/M34 A3047 RMK AC3CI4 SLP413

METARs EXPIRÉS :
  • 181600Z 24003KT 20SM FEW140 BKN240 M32/M36 A3048 RMK AC1CI6 AC SW SLP418
  • 181500Z 30003KT 20SM SCT240 M31/M34 A3047 RMK CI4 SLP412

TAF TAF CYEG
Valide du 18 à 15h jusqu'au 19 à 12h UTC


181438Z 1815/1912 29005KT P6SM FEW240
BECMG 1816/1818 24005KT
FM181900 23005KT P6SM SCT120 BKN240
BECMG 1819/1821 14005KT
FM190000 14010KT P6SM BKN080 BKN180
FM190900 14010KT P6SM SCT080 SCT240 RMK NXT FCST BY 181800Z



MET'MAP, la Météo Aéronautique d'un coup d'oeil ! - Copyright ORBIFLY Décembre 2007 - Disclaimer

ORBIFLY MET'MAP TEAM :

Programmation & Développement : Alexandra Zaïnal
Sur une idée originale de : Baudouin d'Aumeries
Assistance à la programmation : Marc-Olivier Méhu
Soutien technique & logistique : Manuel Goepfert

Contact : metmap@orbifly.com




SOURCES & CREDITS :

   NOAA       Earth
Advisory